Aérodrome :
LOGIN :

S'inscrire | Disclaimer

   EN    FR    IT 

 










Légende :    VFR   VFR Marginal   IFR   IFR Intensif   IFR Très Intensif
Visi : 
Plafond : 
>= 8 km
>= 3000ft
5 à 8 km
1000 à 3000 ft
1500m à 5 km
500 à 1000 ft
800 à 1500m
200 à 500 ft
< 800m
< 200 ft
Symboles :   Orages  Brouillard  Fortes neiges  Fortes précipitations  Vent > 20 kt
SIGMETs :   Divers  Orages  Givrage  Turbulence  Onde Orograph.  Cendres Volcan.






- Altitude de l'aérodrome : 935 ft


EBFS - Florennes

DERNIER METAR :
  • 230755Z 23010KT 9999 -RADZ SCT004 BKN006 BKN008 18/17 Q1017 YLO GRN TEMPO YLO

METARs EXPIRÉS :
  • 230747Z 23010KT 9000 -RADZ SCT004 BKN006 BKN008 17/17 Q1017 YLO GRN TEMPO YLO
  • 230725Z 22010KT 9999 -RADZ SCT003 BKN005 BKN007 17/17 Q1017 YLO GRN TEMPO AMB
  • 230634Z 20009KT 2000 -RADZ BKN007 BKN009 17/16 Q1017 YLO GRN TEMPO AMB
  • 230617Z 20008KT 1400 RA BKN007 BKN009 17/16 Q1017 AMB GRN TEMPO AMB
  • 230610Z 20008KT 3000 RA BKN007 BKN009 17/16 Q1017 YLO GRN TEMPO YLO
  • 230555Z 20010KT 9999 BKN009 BKN012 17/16 Q1017 GRN GRN TEMPO YLO
  • 230554Z 20010KT 9999 BKN009 BKN012 17/16 Q1017 GRN GRN TEMPO YLO
  • 230525Z 21011KT 9999 BKN009 BKN012 17/16 Q1017 GRN GRN
  • 230503Z 20009KT 9999 BKN009 BKN012 17/16 Q1017 GRN GRN
  • 230455Z AUTO 20009KT 9999 SCT009/// BKN011/// OVC050/// 17/16 Q1017 GRN
  • 230434Z AUTO 21010KT 9999 SCT010/// BKN050/// 17/15 Q1017 GRN
  • 230325Z AUTO 21008KT 9999 FEW095/// BKN220/// 16/15 Q1018 BLU

TAF AMD TAF EBFS
Valide du 23 à 07h jusqu'au 23 à 16h UTC


230638Z 2307/2316 21010KT 9999 BKN007 OVC015
TEMPO 2307/2308 21012KT 3000 -RADZ BKN006 OVC012
BECMG 2310/2312 27012KT FEW008 SCT020
TEMPO 2310/2312 27015G25KT 4000 -SHRA SCT008 SCT018TCU
BECMG 2312/2314 SCT025 BKN030



MET'MAP, la Météo Aéronautique d'un coup d'oeil ! - Copyright ORBIFLY Décembre 2007 - Disclaimer

ORBIFLY MET'MAP TEAM :

Programmation & Développement : Alexandra Zaïnal
Sur une idée originale de : Baudouin d'Aumeries
Soutien technique & logistique : Manuel Goepfert
Assistance : Marc-Olivier Méhu




SOURCES & CREDITS :

   NOAA